IBE107 LEIB-LEJR

Flight info

Callsign IBE107
Flight time 1h 9m
Altitude 35000
Route BAVER M603 ALT N851 MGA
Aircraft A320/M-SDE3FGHIRWY/LB1

Departure

Time 2026-05-07 09:02
Airport Ibiza Airport (LEIB)

Arrival

Time 2026-05-07 10:11
Airport Jerez Airport (LEJR)
Time Latitude Longitude Altitude Speed Heading
2026-05-07 08:39 38.87600 1.36992 49 ft 0 kts 332°
2026-05-07 08:42 38.87597 1.36995 49 ft 2 kts 332°
2026-05-07 08:42 38.87586 1.37002 49 ft 0 kts 332°
2026-05-07 08:47 38.87583 1.37004 49 ft 3 kts 332°
2026-05-07 08:47 38.87567 1.37015 45 ft 3 kts 316°
2026-05-07 08:48 38.87557 1.37034 42 ft 3 kts 279°
2026-05-07 08:48 38.87556 1.37035 42 ft 0 kts 277°
2026-05-07 08:49 38.87572 1.37012 48 ft 5 kts 327°
2026-05-07 08:49 38.87578 1.37007 48 ft 0 kts 330°
2026-05-07 08:56 38.87584 1.36998 47 ft 7 kts 303°
2026-05-07 08:56 38.87538 1.36960 44 ft 10 kts 191°
2026-05-07 08:57 38.87485 1.36906 45 ft 10 kts 243°
2026-05-07 08:57 38.87453 1.36825 42 ft 10 kts 242°
2026-05-07 08:57 38.87397 1.36792 42 ft 10 kts 162°
2026-05-07 08:58 38.87343 1.36830 40 ft 12 kts 146°
2026-05-07 08:58 38.87268 1.36812 36 ft 13 kts 237°
2026-05-07 08:58 38.87222 1.36713 34 ft 13 kts 243°
2026-05-07 08:58 38.87183 1.36613 35 ft 12 kts 242°
2026-05-07 08:59 38.87143 1.36518 33 ft 12 kts 242°
2026-05-07 08:59 38.87105 1.36424 32 ft 12 kts 243°
2026-05-07 08:59 38.87068 1.36334 32 ft 11 kts 243°
2026-05-07 08:59 38.87032 1.36246 30 ft 11 kts 241°
2026-05-07 09:00 38.86995 1.36160 30 ft 11 kts 241°
2026-05-07 09:00 38.86958 1.36073 29 ft 11 kts 243°
2026-05-07 09:00 38.86922 1.35982 27 ft 11 kts 242°
2026-05-07 09:00 38.86884 1.35891 29 ft 12 kts 242°
2026-05-07 09:01 38.86830 1.35823 24 ft 12 kts 180°
2026-05-07 09:01 38.86761 1.35861 26 ft 9 kts 133°
2026-05-07 09:01 38.86728 1.35927 28 ft 10 kts 108°
2026-05-07 09:01 38.86758 1.36040 27 ft 24 kts 61°
2026-05-07 09:02 38.86954 1.36516 28 ft 93 kts 62°
2026-05-07 09:02 38.87346 1.37468 35 ft 145 kts 63°
2026-05-07 09:02 38.87790 1.38638 625 ft 145 kts 64°
2026-05-07 09:02 38.88217 1.39815 1315 ft 145 kts 70°
2026-05-07 09:03 38.88485 1.41159 1737 ft 166 kts 78°
2026-05-07 09:03 38.88739 1.42690 2090 ft 186 kts 76°
2026-05-07 09:03 38.89043 1.44386 2646 ft 199 kts 77°
2026-05-07 09:03 38.89362 1.46134 3428 ft 205 kts 77°
2026-05-07 09:04 38.89691 1.47934 4202 ft 209 kts 77°
2026-05-07 09:04 38.90021 1.49740 5000 ft 212 kts 77°
2026-05-07 09:04 38.90333 1.51605 5770 ft 216 kts 85°
2026-05-07 09:04 38.90117 1.53538 6484 ft 221 kts 113°
2026-05-07 09:05 38.89164 1.55159 6947 ft 242 kts 142°
2026-05-07 09:05 38.87597 1.56221 7301 ft 267 kts 154°
2026-05-07 09:05 38.85861 1.57212 7972 ft 277 kts 158°
2026-05-07 09:05 38.83949 1.57640 8771 ft 284 kts 183°
2026-05-07 09:06 38.82041 1.56992 9620 ft 288 kts 209°
2026-05-07 09:06 38.80529 1.55328 10429 ft 290 kts 234°
2026-05-07 09:06 38.79695 1.52952 10988 ft 305 kts 259°
2026-05-07 09:06 38.79720 1.50181 11227 ft 328 kts 276°
2026-05-07 09:07 38.80036 1.47174 11419 ft 352 kts 277°
2026-05-07 09:07 38.80387 1.43967 11549 ft 374 kts 277°
2026-05-07 09:07 38.80757 1.40574 11755 ft 392 kts 277°
2026-05-07 09:07 38.81131 1.37076 12286 ft 399 kts 277°
2026-05-07 09:08 38.81502 1.33531 12904 ft 403 kts 277°
2026-05-07 09:08 38.81745 1.31163 13305 ft 405 kts 276°
2026-05-07 09:08 38.82106 1.27562 13879 ft 409 kts 276°
2026-05-07 09:08 38.82466 1.23921 14446 ft 412 kts 276°
2026-05-07 09:09 38.82826 1.20274 15038 ft 413 kts 276°
2026-05-07 09:09 38.83189 1.16617 15630 ft 414 kts 276°
2026-05-07 09:09 38.83555 1.12945 16193 ft 416 kts 276°
2026-05-07 09:09 38.83924 1.09260 16743 ft 418 kts 276°
2026-05-07 09:10 38.84293 1.05558 17292 ft 420 kts 276°
2026-05-07 09:10 38.84664 1.01835 17857 ft 421 kts 275°
2026-05-07 09:10 38.85032 0.98106 18400 ft 422 kts 275°
2026-05-07 09:10 38.85400 0.94364 18883 ft 423 kts 275°
2026-05-07 09:11 38.85764 0.90612 19348 ft 424 kts 274°
2026-05-07 09:11 38.86129 0.86855 19793 ft 425 kts 274°
2026-05-07 09:11 38.86494 0.83080 20232 ft 427 kts 274°
2026-05-07 09:11 38.86859 0.79296 20643 ft 428 kts 274°
2026-05-07 09:12 38.87223 0.75497 21046 ft 430 kts 274°
2026-05-07 09:12 38.87535 0.71719 21428 ft 430 kts 269°
2026-05-07 09:12 38.87433 0.67847 21823 ft 428 kts 260°
2026-05-07 09:12 38.86851 0.64164 22205 ft 426 kts 251°
2026-05-07 09:13 38.85832 0.60599 22577 ft 426 kts 246°
2026-05-07 09:13 38.84722 0.57080 22966 ft 427 kts 246°
2026-05-07 09:13 38.83605 0.53532 23349 ft 428 kts 246°
2026-05-07 09:13 38.82485 0.49990 23697 ft 428 kts 244°
2026-05-07 09:14 38.81103 0.46627 24000 ft 427 kts 236°
2026-05-07 09:14 38.79460 0.43444 24291 ft 428 kts 235°
2026-05-07 09:14 38.77813 0.40263 24622 ft 428 kts 235°
2026-05-07 09:14 38.76174 0.37093 25058 ft 425 kts 235°
2026-05-07 09:15 38.74547 0.33944 25479 ft 423 kts 234°
2026-05-07 09:15 38.72925 0.30809 25935 ft 421 kts 234°
2026-05-07 09:15 38.71313 0.27697 26379 ft 419 kts 234°
2026-05-07 09:15 38.69707 0.24599 26828 ft 416 kts 234°
2026-05-07 09:16 38.68112 0.21521 27298 ft 414 kts 234°
2026-05-07 09:16 38.66524 0.18458 27771 ft 411 kts 234°
2026-05-07 09:16 38.64949 0.15420 28261 ft 409 kts 234°
2026-05-07 09:16 38.63379 0.12402 28747 ft 406 kts 233°
2026-05-07 09:17 38.61819 0.09409 29255 ft 403 kts 233°
2026-05-07 09:17 38.60270 0.06440 29745 ft 400 kts 233°
2026-05-07 09:17 38.58728 0.03488 30217 ft 398 kts 233°
2026-05-07 09:17 38.57196 0.00558 30611 ft 396 kts 233°
2026-05-07 09:18 38.55670 -0.02362 30982 ft 394 kts 233°
2026-05-07 09:18 38.54151 -0.05273 31330 ft 394 kts 233°
2026-05-07 09:18 38.52629 -0.08180 31676 ft 393 kts 233°
2026-05-07 09:18 38.51108 -0.11073 32006 ft 392 kts 233°
2026-05-07 09:19 38.49586 -0.13968 32367 ft 392 kts 233°
2026-05-07 09:19 38.48071 -0.16847 32698 ft 391 kts 233°
2026-05-07 09:19 38.46556 -0.19725 33051 ft 390 kts 233°
2026-05-07 09:19 38.45042 -0.22599 33400 ft 390 kts 233°
2026-05-07 09:20 38.43533 -0.25459 33751 ft 389 kts 233°
2026-05-07 09:20 38.42026 -0.28317 34072 ft 388 kts 233°
2026-05-07 09:20 38.40517 -0.31172 34348 ft 388 kts 233°
2026-05-07 09:20 38.39005 -0.34033 34597 ft 389 kts 234°
2026-05-07 09:21 38.37497 -0.36888 34833 ft 389 kts 234°
2026-05-07 09:21 38.35982 -0.39760 34948 ft 392 kts 234°
2026-05-07 09:21 38.32910 -0.45565 34975 ft 397 kts 234°
2026-05-07 09:22 38.29813 -0.51397 34975 ft 398 kts 233°
2026-05-07 09:22 38.26766 -0.57286 34976 ft 400 kts 239°
2026-05-07 09:23 38.24421 -0.63687 34974 ft 402 kts 242°
2026-05-07 09:23 38.22094 -0.70150 34976 ft 402 kts 242°
2026-05-07 09:24 38.19766 -0.76613 34972 ft 402 kts 242°
2026-05-07 09:24 38.17426 -0.83082 34969 ft 402 kts 242°
2026-05-07 09:25 38.15078 -0.89527 34967 ft 402 kts 242°
2026-05-07 09:25 38.12727 -0.95976 34967 ft 402 kts 242°
2026-05-07 09:26 38.10379 -1.02423 34970 ft 402 kts 242°
2026-05-07 09:26 38.08030 -1.08878 34968 ft 403 kts 242°
2026-05-07 09:27 38.05669 -1.15331 34964 ft 403 kts 242°
2026-05-07 09:28 38.02118 -1.25009 34964 ft 404 kts 242°
2026-05-07 09:28 37.99739 -1.31457 34962 ft 404 kts 242°
2026-05-07 09:29 37.97367 -1.37868 34963 ft 404 kts 242°
2026-05-07 09:29 37.94965 -1.44377 34968 ft 405 kts 242°
2026-05-07 09:30 37.92590 -1.50803 34960 ft 405 kts 242°
2026-05-07 09:30 37.90192 -1.57268 34963 ft 406 kts 242°
2026-05-07 09:31 37.87791 -1.63734 34962 ft 406 kts 242°
2026-05-07 09:31 37.85381 -1.70195 34961 ft 406 kts 242°
2026-05-07 09:32 37.82961 -1.76657 34962 ft 407 kts 242°
2026-05-07 09:32 37.80546 -1.83125 34958 ft 407 kts 242°
2026-05-07 09:33 37.78111 -1.89592 34961 ft 407 kts 242°
2026-05-07 09:33 37.75676 -1.96060 34959 ft 408 kts 242°
2026-05-07 09:34 37.73240 -2.02524 34957 ft 408 kts 242°
2026-05-07 09:34 37.70800 -2.08998 34960 ft 408 kts 242°
2026-05-07 09:35 37.68350 -2.15468 34958 ft 409 kts 242°
2026-05-07 09:35 37.65904 -2.21915 34955 ft 410 kts 242°
2026-05-07 09:36 37.63436 -2.28405 34954 ft 410 kts 242°
2026-05-07 09:36 37.60973 -2.34881 34957 ft 410 kts 242°
2026-05-07 09:37 37.58499 -2.41366 34952 ft 410 kts 242°
2026-05-07 09:37 37.56027 -2.47850 34952 ft 410 kts 242°
2026-05-07 09:38 37.53544 -2.54334 34950 ft 411 kts 242°
2026-05-07 09:38 37.51052 -2.60815 34947 ft 411 kts 243°
2026-05-07 09:39 37.48555 -2.67295 34947 ft 411 kts 243°
2026-05-07 09:39 37.46061 -2.73776 34946 ft 412 kts 243°
2026-05-07 09:40 37.43563 -2.80261 34946 ft 412 kts 243°
2026-05-07 09:40 37.41053 -2.86740 34943 ft 412 kts 243°
2026-05-07 09:41 37.38540 -2.93216 34941 ft 412 kts 243°
2026-05-07 09:41 37.36040 -2.99660 34946 ft 412 kts 243°
2026-05-07 09:42 37.33520 -3.06132 34948 ft 413 kts 243°
2026-05-07 09:42 37.30991 -3.12616 34950 ft 413 kts 243°
2026-05-07 09:43 37.28461 -3.19089 34955 ft 413 kts 243°
2026-05-07 09:43 37.25926 -3.25554 34954 ft 413 kts 243°
2026-05-07 09:44 37.23384 -3.32014 34957 ft 413 kts 243°
2026-05-07 09:44 37.20842 -3.38476 34961 ft 413 kts 244°
2026-05-07 09:45 37.18296 -3.44936 34957 ft 413 kts 243°
2026-05-07 09:45 37.15742 -3.51400 34958 ft 414 kts 244°
2026-05-07 09:46 37.13183 -3.57858 34960 ft 414 kts 244°
2026-05-07 09:46 37.10620 -3.64309 34965 ft 414 kts 244°
2026-05-07 09:47 37.08057 -3.70773 34973 ft 415 kts 244°
2026-05-07 09:47 37.05495 -3.77207 34972 ft 416 kts 244°
2026-05-07 09:48 37.02906 -3.83681 34964 ft 416 kts 244°
2026-05-07 09:48 37.00310 -3.90155 34961 ft 416 kts 245°
2026-05-07 09:49 36.97714 -3.96632 34954 ft 416 kts 245°
2026-05-07 09:49 36.95756 -4.01517 34949 ft 417 kts 245°
2026-05-07 09:50 36.93956 -4.06004 34942 ft 417 kts 245°
2026-05-07 09:50 36.92723 -4.09074 34943 ft 417 kts 245°
2026-05-07 09:51 36.91643 -4.11755 34946 ft 417 kts 245°
2026-05-07 09:51 36.89283 -4.17590 34945 ft 417 kts 245°
2026-05-07 09:52 36.86644 -4.24101 34768 ft 418 kts 245°
2026-05-07 09:52 36.85334 -4.27329 34524 ft 417 kts 246°
2026-05-07 09:52 36.84032 -4.30572 34290 ft 416 kts 248°
2026-05-07 09:52 36.83015 -4.33933 34056 ft 414 kts 255°
2026-05-07 09:53 36.82401 -4.37435 33800 ft 413 kts 263°
2026-05-07 09:53 36.82194 -4.41001 33531 ft 413 kts 270°
2026-05-07 09:53 36.82398 -4.44582 33261 ft 414 kts 278°
2026-05-07 09:53 36.82855 -4.48136 32994 ft 415 kts 278°
2026-05-07 09:54 36.83308 -4.51687 32733 ft 415 kts 278°
2026-05-07 09:54 36.83758 -4.55253 32474 ft 415 kts 278°
2026-05-07 09:54 36.84203 -4.58817 32217 ft 416 kts 278°
2026-05-07 09:54 36.84646 -4.62385 31346 ft 419 kts 279°
2026-05-07 09:55 36.85095 -4.66003 30276 ft 424 kts 279°
2026-05-07 09:55 36.85549 -4.69664 29055 ft 428 kts 279°
2026-05-07 09:55 36.86009 -4.73352 27854 ft 432 kts 279°
2026-05-07 09:55 36.86473 -4.77056 26723 ft 433 kts 278°
2026-05-07 09:56 36.86940 -4.80785 25569 ft 436 kts 278°
2026-05-07 09:56 36.87398 -4.84481 24456 ft 425 kts 278°
2026-05-07 09:56 36.87841 -4.88073 23403 ft 411 kts 277°
2026-05-07 09:56 36.88272 -4.91568 22218 ft 405 kts 277°
2026-05-07 09:57 36.88553 -4.93874 21569 ft 407 kts 277°
2026-05-07 09:57 36.88976 -4.97371 20750 ft 406 kts 277°
2026-05-07 09:57 36.89395 -5.00850 19939 ft 405 kts 277°
2026-05-07 09:57 36.89811 -5.04317 19129 ft 404 kts 277°
2026-05-07 09:58 36.90230 -5.07788 18335 ft 404 kts 276°
2026-05-07 09:58 36.90785 -5.12387 17234 ft 403 kts 277°
2026-05-07 09:58 36.91067 -5.14720 16732 ft 401 kts 277°
2026-05-07 09:58 36.91483 -5.18147 15998 ft 398 kts 277°
2026-05-07 09:59 36.91895 -5.21560 15280 ft 397 kts 277°
2026-05-07 09:59 36.92304 -5.24966 14591 ft 395 kts 277°
2026-05-07 09:59 36.92709 -5.28353 13914 ft 393 kts 277°
2026-05-07 09:59 36.93000 -5.31725 13204 ft 389 kts 270°
2026-05-07 10:00 36.92841 -5.35072 12576 ft 382 kts 260°
2026-05-07 10:00 36.92325 -5.38310 11940 ft 378 kts 257°
2026-05-07 10:00 36.91791 -5.41505 11341 ft 374 kts 257°
2026-05-07 10:00 36.91276 -5.44624 11175 ft 358 kts 257°
2026-05-07 10:01 36.90788 -5.47609 11041 ft 342 kts 257°
2026-05-07 10:01 36.90323 -5.50457 10917 ft 328 kts 257°
2026-05-07 10:01 36.89879 -5.53154 10797 ft 315 kts 257°
2026-05-07 10:01 36.89458 -5.55669 10681 ft 303 kts 257°
2026-05-07 10:02 36.89034 -5.58203 10553 ft 293 kts 257°
2026-05-07 10:02 36.88625 -5.60652 10370 ft 285 kts 257°
2026-05-07 10:02 36.88225 -5.63050 10288 ft 281 kts 257°
2026-05-07 10:02 36.87825 -5.65431 10218 ft 280 kts 256°
2026-05-07 10:03 36.87422 -5.67809 10110 ft 279 kts 256°
2026-05-07 10:03 36.87021 -5.70181 9988 ft 279 kts 256°
2026-05-07 10:03 36.86620 -5.72562 9640 ft 283 kts 256°
2026-05-07 10:03 36.86214 -5.74966 9168 ft 279 kts 257°
2026-05-07 10:04 36.85817 -5.77319 8485 ft 277 kts 257°
2026-05-07 10:04 36.85729 -5.79702 7804 ft 277 kts 278°
2026-05-07 10:04 36.86487 -5.81913 7070 ft 283 kts 306°
2026-05-07 10:04 36.88001 -5.83476 6401 ft 286 kts 331°
2026-05-07 10:05 36.89758 -5.84604 5780 ft 281 kts 328°
2026-05-07 10:05 36.91396 -5.85900 5195 ft 280 kts 321°
2026-05-07 10:05 36.92892 -5.87416 4595 ft 273 kts 314°
2026-05-07 10:05 36.94086 -5.89172 4209 ft 256 kts 295°
2026-05-07 10:06 36.94630 -5.91145 4197 ft 229 kts 275°
2026-05-07 10:06 36.94624 -5.93059 4135 ft 215 kts 257°
2026-05-07 10:06 36.94169 -5.94787 4017 ft 205 kts 240°
2026-05-07 10:06 36.93352 -5.96212 3838 ft 200 kts 225°
2026-05-07 10:07 36.92256 -5.97257 3609 ft 199 kts 208°
2026-05-07 10:07 36.90994 -5.97927 3377 ft 199 kts 203°
2026-05-07 10:07 36.89699 -5.98561 3115 ft 200 kts 202°
2026-05-07 10:07 36.88397 -5.99199 2845 ft 204 kts 202°
2026-05-07 10:08 36.87079 -5.99844 2556 ft 201 kts 202°
2026-05-07 10:08 36.85795 -6.00472 2324 ft 194 kts 202°
2026-05-07 10:08 36.84564 -6.01074 2054 ft 184 kts 202°
2026-05-07 10:08 36.83420 -6.01633 1815 ft 168 kts 202°
2026-05-07 10:09 36.82403 -6.02130 1639 ft 149 kts 202°
2026-05-07 10:09 36.81473 -6.02582 1415 ft 136 kts 202°
2026-05-07 10:09 36.80609 -6.03010 1258 ft 133 kts 202°
2026-05-07 10:09 36.79737 -6.03436 1092 ft 134 kts 200°
2026-05-07 10:10 36.78861 -6.03816 885 ft 133 kts 200°
2026-05-07 10:10 36.78003 -6.04240 756 ft 134 kts 205°
2026-05-07 10:10 36.77175 -6.04719 557 ft 132 kts 202°
2026-05-07 10:10 36.76327 -6.05108 365 ft 124 kts 199°
2026-05-07 10:11 36.75553 -6.05473 175 ft 118 kts 202°
2026-05-07 10:11 36.74830 -6.05831 93 ft 96 kts 201°
2026-05-07 10:11 36.74370 -6.06057 89 ft 46 kts 201°
2026-05-07 10:11 36.74176 -6.06164 86 ft 24 kts 217°
2026-05-07 10:12 36.74050 -6.06298 88 ft 23 kts 227°
2026-05-07 10:12 36.74046 -6.06423 85 ft 16 kts
2026-05-07 10:12 36.74148 -6.06385 86 ft 15 kts 21°
2026-05-07 10:12 36.74240 -6.06339 87 ft 14 kts 22°
2026-05-07 10:13 36.74255 -6.06331 89 ft 14 kts 22°
2026-05-07 10:13 36.74339 -6.06291 86 ft 13 kts 21°
2026-05-07 10:13 36.74418 -6.06252 89 ft 12 kts 21°
2026-05-07 10:13 36.74494 -6.06215 87 ft 15 kts 21°
2026-05-07 10:14 36.74627 -6.06150 87 ft 20 kts 21°
2026-05-07 10:14 36.74745 -6.06142 87 ft 16 kts 315°
2026-05-07 10:14 36.74804 -6.06263 88 ft 16 kts 333°
2026-05-07 10:14 36.74870 -6.06291 87 ft 8 kts 300°
2026-05-07 10:15 36.74887 -6.06342 86 ft 0 kts 290°